createdAt,value
2023-04-17T00:02:16.907Z,11.61
2023-04-17T00:04:46.525Z,11.69
2023-04-17T00:07:14.420Z,11.76
2023-04-17T00:09:42.298Z,11.70
2023-04-17T00:12:10.225Z,11.71
2023-04-17T00:14:38.110Z,11.72
2023-04-17T00:17:06.106Z,11.72
2023-04-17T00:19:34.037Z,11.73
2023-04-17T00:22:03.405Z,11.74
2023-04-17T00:24:31.270Z,11.69
2023-04-17T00:27:01.218Z,11.75
2023-04-17T00:29:29.107Z,11.63
2023-04-17T00:31:57.105Z,11.60
2023-04-17T00:34:25.129Z,11.56
2023-04-17T00:36:52.976Z,11.58
2023-04-17T00:39:22.346Z,11.59
2023-04-17T00:41:50.283Z,11.58
2023-04-17T00:44:18.190Z,11.56
2023-04-17T00:46:46.175Z,11.58
2023-04-17T00:49:14.701Z,11.55
2023-04-17T00:51:42.633Z,11.55
2023-04-17T00:54:11.143Z,11.61
2023-04-17T00:56:40.659Z,11.57
2023-04-17T00:59:13.164Z,11.48
2023-04-17T01:01:41.370Z,11.50
2023-04-17T01:04:11.364Z,11.50
2023-04-17T01:06:39.439Z,11.45
2023-04-17T01:09:07.799Z,11.38
2023-04-17T01:11:36.325Z,11.26
2023-04-17T01:14:05.613Z,11.22
2023-04-17T01:16:33.984Z,11.22
2023-04-17T01:19:02.243Z,11.26
2023-04-17T01:21:30.101Z,11.21
2023-04-17T01:24:04.903Z,11.19
2023-04-17T01:26:33.579Z,11.17
2023-04-17T01:29:01.724Z,11.09
2023-04-17T01:31:30.245Z,11.02
2023-04-17T01:33:58.205Z,11.02
2023-04-17T01:36:28.813Z,11.05
2023-04-17T01:38:56.718Z,11.02
2023-04-17T01:41:26.028Z,11.01
2023-04-17T01:43:53.979Z,10.94
2023-04-17T01:46:21.972Z,10.96
2023-04-17T01:48:49.867Z,11.03
2023-04-17T01:51:17.780Z,11.00
2023-04-17T01:53:45.806Z,10.98
2023-04-17T01:56:14.214Z,10.88
2023-04-17T01:58:43.747Z,10.90
2023-04-17T02:01:11.724Z,10.88
2023-04-17T02:03:42.366Z,10.86
2023-04-17T02:06:10.712Z,10.81
2023-04-17T02:08:38.674Z,10.82
2023-04-17T02:11:06.782Z,10.87
2023-04-17T02:13:34.664Z,10.87
2023-04-17T02:16:03.969Z,10.84
2023-04-17T02:18:31.889Z,10.95
2023-04-17T02:20:59.942Z,11.02
2023-04-17T02:23:27.860Z,11.09
2023-04-17T02:25:56.109Z,11.15
2023-04-17T02:28:23.970Z,11.09
2023-04-17T02:30:51.914Z,11.15
2023-04-17T02:33:21.456Z,11.18
2023-04-17T02:35:49.967Z,11.21
2023-04-17T02:38:17.843Z,11.19
2023-04-17T02:40:45.756Z,11.15
2023-04-17T02:43:15.130Z,11.08
2023-04-17T02:45:43.046Z,11.01
2023-04-17T02:48:10.957Z,10.95
2023-04-17T02:50:40.269Z,10.95
2023-04-17T02:53:08.990Z,10.98
2023-04-17T02:55:37.074Z,11.03
2023-04-17T02:58:04.933Z,11.01
2023-04-17T03:00:33.039Z,10.98
2023-04-17T03:03:01.084Z,11.01
2023-04-17T03:05:30.549Z,10.96
2023-04-17T03:08:00.846Z,10.95
2023-04-17T03:10:28.693Z,10.80
2023-04-17T03:12:56.629Z,10.84
2023-04-17T03:15:24.684Z,10.76
2023-04-17T03:17:52.664Z,10.80
2023-04-17T03:20:21.824Z,10.82
2023-04-17T03:22:49.743Z,10.74
2023-04-17T03:25:19.171Z,10.76
2023-04-17T03:27:47.067Z,10.73
2023-04-17T03:30:15.382Z,10.70
2023-04-17T03:32:43.253Z,10.71
2023-04-17T03:35:11.131Z,10.65
2023-04-17T03:37:39.042Z,10.73
2023-04-17T03:40:08.583Z,10.69
2023-04-17T03:42:37.864Z,10.63
2023-04-17T03:45:06.453Z,10.75
2023-04-17T03:47:34.334Z,10.65
2023-04-17T03:50:02.290Z,10.71
2023-04-17T03:52:30.233Z,10.70
2023-04-17T03:55:00.336Z,10.68
2023-04-17T03:57:28.207Z,10.61
2023-04-17T03:59:59.715Z,10.61
2023-04-17T04:02:27.821Z,10.50
2023-04-17T04:04:55.956Z,10.51
2023-04-17T04:07:23.943Z,10.57
2023-04-17T04:09:51.854Z,10.67
2023-04-17T04:12:19.759Z,10.71
2023-04-17T04:14:47.632Z,10.73
2023-04-17T04:17:16.957Z,10.81
2023-04-17T04:19:46.152Z,10.86
2023-04-17T04:22:14.658Z,10.82
2023-04-17T04:24:42.856Z,10.83
2023-04-17T04:27:12.224Z,10.67
2023-04-17T04:29:40.132Z,10.79
2023-04-17T04:32:09.837Z,10.83
2023-04-17T04:34:39.302Z,10.84
2023-04-17T04:37:08.186Z,10.84
2023-04-17T04:39:37.970Z,10.84
2023-04-17T04:42:09.995Z,10.92
2023-04-17T04:44:38.214Z,10.92
2023-04-17T04:47:06.349Z,11.02
2023-04-17T04:49:34.262Z,11.04
2023-04-17T04:52:03.572Z,10.94
2023-04-17T04:54:31.454Z,11.00
2023-04-17T04:56:59.439Z,10.96
2023-04-17T04:59:27.916Z,10.99
2023-04-17T05:01:56.114Z,10.99
2023-04-17T05:04:24.167Z,11.08
2023-04-17T05:06:52.287Z,11.08
2023-04-17T05:09:22.212Z,11.11
2023-04-17T05:11:50.146Z,11.11
2023-04-17T05:14:18.019Z,11.13
2023-04-17T05:16:46.165Z,11.22
2023-04-17T05:19:14.620Z,11.27
2023-04-17T05:21:42.671Z,11.29
2023-04-17T05:24:10.741Z,11.34
2023-04-17T05:26:39.985Z,11.39
2023-04-17T05:29:09.089Z,11.38
2023-04-17T05:31:37.370Z,11.33
2023-04-17T05:34:05.401Z,11.37
2023-04-17T05:36:33.247Z,11.49
2023-04-17T05:39:01.093Z,11.55
2023-04-17T05:41:31.215Z,11.65
2023-04-17T05:44:00.430Z,11.62
2023-04-17T05:46:28.346Z,11.58
2023-04-17T05:48:56.261Z,11.60
2023-04-17T05:51:24.181Z,11.66
2023-04-17T05:53:53.251Z,11.56
2023-04-17T05:56:21.155Z,11.50
2023-04-17T05:58:48.985Z,11.58
2023-04-17T06:01:22.512Z,11.51
2023-04-17T06:03:51.061Z,11.52
2023-04-17T06:06:19.384Z,11.62
2023-04-17T06:08:48.941Z,11.54
2023-04-17T06:11:17.512Z,11.53
2023-04-17T06:13:45.489Z,11.60
2023-04-17T06:16:13.538Z,11.65
2023-04-17T06:18:43.062Z,11.80
2023-04-17T06:21:11.329Z,11.83
2023-04-17T06:23:39.236Z,11.90
2023-04-17T06:26:09.282Z,11.85
2023-04-17T06:28:37.130Z,12.01
2023-04-17T06:31:05.136Z,11.98
2023-04-17T06:33:34.133Z,12.09
2023-04-17T06:36:03.686Z,12.12
2023-04-17T06:38:31.504Z,12.14
2023-04-17T06:40:59.381Z,12.17
2023-04-17T06:43:27.220Z,12.07
2023-04-17T06:45:55.159Z,12.27
2023-04-17T06:48:23.151Z,12.33
2023-04-17T06:50:51.085Z,12.34
2023-04-17T06:53:21.617Z,12.50
2023-04-17T06:55:49.522Z,12.51
2023-04-17T06:58:17.795Z,12.43
2023-04-17T07:00:45.687Z,12.66
2023-04-17T07:03:14.839Z,12.65
2023-04-17T07:05:44.951Z,12.61
2023-04-17T07:08:12.837Z,12.80
2023-04-17T07:10:42.095Z,12.83
2023-04-17T07:13:10.002Z,12.82
2023-04-17T07:15:38.030Z,12.93
2023-04-17T07:18:06.357Z,12.97
2023-04-17T07:20:34.294Z,12.98
2023-04-17T07:23:02.404Z,13.01
2023-04-17T07:25:30.234Z,13.21
2023-04-17T07:27:59.572Z,13.34
2023-04-17T07:30:28.688Z,13.40
2023-04-17T07:32:56.626Z,13.53
2023-04-17T07:35:24.661Z,13.66
2023-04-17T07:37:52.643Z,13.72
2023-04-17T07:40:20.979Z,13.94
2023-04-17T07:42:48.822Z,14.04
2023-04-17T07:45:18.219Z,14.23
2023-04-17T07:47:46.269Z,14.12
2023-04-17T07:50:14.316Z,14.05
2023-04-17T07:52:42.229Z,14.16
2023-04-17T07:55:10.700Z,14.03
2023-04-17T07:57:42.930Z,13.96
2023-04-17T08:00:13.828Z,13.79
2023-04-17T08:02:43.494Z,13.81
2023-04-17T08:05:11.744Z,13.94
2023-04-17T08:07:40.205Z,14.00
2023-04-17T08:10:09.039Z,13.96
2023-04-17T08:12:37.001Z,14.06
2023-04-17T08:15:05.899Z,13.97
2023-04-17T08:17:33.861Z,13.82
2023-04-17T08:20:03.712Z,13.87
2023-04-17T08:22:31.718Z,13.89
2023-04-17T08:24:59.776Z,13.88
2023-04-17T08:27:27.919Z,13.82
2023-04-17T08:29:56.553Z,13.77
2023-04-17T08:32:24.698Z,13.63
2023-04-17T08:34:52.722Z,13.52
2023-04-17T08:37:22.042Z,13.40
2023-04-17T08:39:52.543Z,13.23
2023-04-17T08:42:20.650Z,13.29
2023-04-17T08:44:48.534Z,13.21
2023-04-17T08:47:19.171Z,13.43
2023-04-17T08:49:47.360Z,13.47
2023-04-17T08:52:16.762Z,13.32
2023-04-17T08:54:49.029Z,13.57
2023-04-17T08:57:19.129Z,13.60
2023-04-17T08:59:47.010Z,13.77
2023-04-17T09:02:15.354Z,13.95
2023-04-17T09:04:44.636Z,13.93
2023-04-17T09:07:15.500Z,13.80
2023-04-17T09:09:52.488Z,13.95
2023-04-17T09:12:22.150Z,14.09
2023-04-17T09:14:50.078Z,14.01
2023-04-17T09:17:19.671Z,14.13
2023-04-17T09:20:04.095Z,14.17
2023-04-17T09:22:35.923Z,14.17
2023-04-17T09:25:06.365Z,14.19
2023-04-17T09:27:34.268Z,13.98
2023-04-17T09:30:03.807Z,14.20
2023-04-17T09:32:33.075Z,14.16
2023-04-17T09:35:02.453Z,14.30
2023-04-17T09:37:49.605Z,14.31
2023-04-17T09:40:20.278Z,14.40
2023-04-17T09:43:02.090Z,14.09
2023-04-17T09:45:33.565Z,13.72
2023-04-17T09:48:01.507Z,13.59
2023-04-17T09:50:30.201Z,13.45
2023-04-17T09:52:58.815Z,13.51
2023-04-17T09:55:30.264Z,13.49
2023-04-17T09:57:59.722Z,13.43
2023-04-17T10:00:29.406Z,13.17
2023-04-17T10:03:00.207Z,13.24
2023-04-17T10:05:32.458Z,13.39
2023-04-17T10:08:01.766Z,13.60
2023-04-17T10:10:34.290Z,13.86
2023-04-17T10:13:04.723Z,13.85
2023-04-17T10:15:34.201Z,13.95
2023-04-17T10:18:20.781Z,14.21
2023-04-17T10:20:48.822Z,14.13
2023-04-17T10:23:28.813Z,14.43
2023-04-17T10:26:45.217Z,14.65
2023-04-17T10:29:14.595Z,15.02
2023-04-17T10:32:17.462Z,15.22
2023-04-17T10:34:46.582Z,15.28
2023-04-17T10:37:16.172Z,15.02
2023-04-17T10:39:52.750Z,14.75
2023-04-17T10:42:21.758Z,15.17
2023-04-17T10:44:56.804Z,15.97
2023-04-17T10:47:31.967Z,16.75
2023-04-17T10:50:00.485Z,16.51
2023-04-17T10:52:40.356Z,16.64
2023-04-17T10:55:09.875Z,16.58
2023-04-17T10:57:58.112Z,16.59
2023-04-17T11:00:33.369Z,16.40
2023-04-17T11:03:02.969Z,16.00
2023-04-17T11:05:32.518Z,15.92
2023-04-17T11:08:00.739Z,16.04
2023-04-17T11:10:28.885Z,15.96
2023-04-17T11:12:56.916Z,15.91
2023-04-17T11:15:31.726Z,15.64
2023-04-17T11:18:01.380Z,15.58
2023-04-17T11:20:31.024Z,15.43
2023-04-17T11:23:02.558Z,15.13
2023-04-17T11:25:33.697Z,15.19
2023-04-17T11:28:03.384Z,15.16
2023-04-17T11:30:34.286Z,15.07
2023-04-17T11:33:05.552Z,15.02
2023-04-17T11:35:34.924Z,15.02
2023-04-17T11:38:13.432Z,14.99
2023-04-17T11:40:51.448Z,14.91
2023-04-17T11:43:25.738Z,14.87
2023-04-17T11:45:56.720Z,15.00
2023-04-17T11:48:26.163Z,15.22
2023-04-17T11:50:57.364Z,15.20
2023-04-17T11:53:26.090Z,15.15
2023-04-17T11:56:12.252Z,15.34
2023-04-17T11:58:48.086Z,15.33
2023-04-17T12:01:18.144Z,15.45
2023-04-17T12:03:47.802Z,15.65
2023-04-17T12:06:17.205Z,15.88
2023-04-17T12:08:47.227Z,16.04
2023-04-17T12:11:30.668Z,16.36
2023-04-17T12:13:58.967Z,16.42
2023-04-17T12:16:29.333Z,16.16
2023-04-17T12:18:58.277Z,16.22
2023-04-17T12:21:26.302Z,16.25
2023-04-17T12:23:54.537Z,16.18
2023-04-17T12:26:25.275Z,16.31
2023-04-17T12:28:53.160Z,16.10
2023-04-17T12:31:21.154Z,16.11
2023-04-17T12:33:54.904Z,16.24
2023-04-17T12:36:23.192Z,16.42
2023-04-17T12:38:51.311Z,16.34
2023-04-17T12:41:19.184Z,16.42
2023-04-17T12:43:47.067Z,16.36
2023-04-17T12:46:15.281Z,16.32
2023-04-17T12:48:43.245Z,16.13
2023-04-17T12:51:12.615Z,16.30
2023-04-17T12:53:40.574Z,16.21
2023-04-17T12:56:09.210Z,16.05
2023-04-17T12:58:37.226Z,16.04
2023-04-17T13:01:05.474Z,15.84
2023-04-17T13:03:33.691Z,15.82
2023-04-17T13:06:01.756Z,15.77
2023-04-17T13:08:31.257Z,15.95
2023-04-17T13:10:59.949Z,15.69
2023-04-17T13:13:28.109Z,15.69
2023-04-17T13:15:56.573Z,15.62
2023-04-17T13:18:24.500Z,15.58
2023-04-17T13:20:52.609Z,15.51
2023-04-17T13:23:20.929Z,15.53
2023-04-17T13:25:50.737Z,15.58
2023-04-17T13:28:18.753Z,15.69
2023-04-17T13:30:46.707Z,15.78
2023-04-17T13:33:14.635Z,15.85
2023-04-17T13:35:42.647Z,15.93
2023-04-17T13:38:11.362Z,16.12
2023-04-17T13:40:39.246Z,16.39
2023-04-17T13:43:09.212Z,16.52
2023-04-17T13:45:37.375Z,16.61
2023-04-17T13:48:05.575Z,16.73
2023-04-17T13:50:33.508Z,17.03
2023-04-17T13:53:01.889Z,17.57
2023-04-17T13:55:29.840Z,18.12
2023-04-17T13:57:58.581Z,18.26
2023-04-17T14:00:28.212Z,18.23
2023-04-17T14:02:56.321Z,17.86
2023-04-17T14:05:24.498Z,17.59
2023-04-17T14:07:52.342Z,17.24
2023-04-17T14:10:20.934Z,16.97
2023-04-17T14:12:49.491Z,16.82
2023-04-17T14:15:20.210Z,16.77
2023-04-17T14:17:51.120Z,16.74
2023-04-17T14:20:20.808Z,16.44
2023-04-17T14:22:48.908Z,16.63
2023-04-17T14:25:16.989Z,16.60
2023-04-17T14:27:45.629Z,16.45
2023-04-17T14:30:15.552Z,16.48
2023-04-17T14:32:43.530Z,16.17
2023-04-17T14:35:13.295Z,16.23
2023-04-17T14:37:41.991Z,16.22
2023-04-17T14:40:10.739Z,16.05
2023-04-17T14:42:51.274Z,15.96
2023-04-17T14:45:21.892Z,15.83
2023-04-17T14:47:50.073Z,15.84
2023-04-17T14:50:19.726Z,15.78
2023-04-17T14:52:47.717Z,15.76
2023-04-17T14:55:15.661Z,15.65
2023-04-17T14:57:49.653Z,15.72
2023-04-17T15:00:21.548Z,15.75
2023-04-17T15:02:50.348Z,15.73
2023-04-17T15:05:21.114Z,15.70
2023-04-17T15:07:49.546Z,15.65
2023-04-17T15:10:17.760Z,15.67
2023-04-17T15:12:45.667Z,15.75
2023-04-17T15:15:13.539Z,15.69
2023-04-17T15:17:41.459Z,15.76
2023-04-17T15:20:10.822Z,15.78
2023-04-17T15:22:40.239Z,15.67
2023-04-17T15:25:08.949Z,15.72
2023-04-17T15:27:37.174Z,15.56
2023-04-17T15:30:08.948Z,15.45
2023-04-17T15:32:36.997Z,15.55
2023-04-17T15:35:05.865Z,15.53
2023-04-17T15:37:35.922Z,15.43
2023-04-17T15:40:06.115Z,15.44
2023-04-17T15:42:36.592Z,15.29
2023-04-17T15:45:05.344Z,15.17
2023-04-17T15:47:33.393Z,15.36
2023-04-17T15:50:01.336Z,15.21
2023-04-17T15:52:29.333Z,15.16
2023-04-17T15:54:57.221Z,15.24
2023-04-17T15:57:26.641Z,15.02
2023-04-17T15:59:54.535Z,14.93
2023-04-17T16:02:22.895Z,14.98
2023-04-17T16:04:50.967Z,14.95
2023-04-17T16:07:20.037Z,14.76
2023-04-17T16:09:48.343Z,14.82
2023-04-17T16:12:16.257Z,14.82
2023-04-17T16:14:45.599Z,14.70
2023-04-17T16:17:13.504Z,14.67
2023-04-17T16:19:41.391Z,14.61
2023-04-17T16:22:09.345Z,14.63
2023-04-17T16:24:37.326Z,14.71
2023-04-17T16:27:05.549Z,14.67
2023-04-17T16:29:33.675Z,14.60
2023-04-17T16:32:03.250Z,14.59
2023-04-17T16:34:31.229Z,14.53
2023-04-17T16:36:59.144Z,14.55
2023-04-17T16:39:27.137Z,14.60
2023-04-17T16:41:56.242Z,14.49
2023-04-17T16:44:25.993Z,14.47
2023-04-17T16:49:28.646Z,14.46
2023-04-17T16:51:56.544Z,14.45
2023-04-17T16:54:24.461Z,14.38
2023-04-17T16:56:53.148Z,14.19
2023-04-17T16:59:21.176Z,14.29
2023-04-17T17:01:49.790Z,14.24
2023-04-17T17:04:17.774Z,14.18
2023-04-17T17:06:47.141Z,14.02
2023-04-17T17:09:15.342Z,13.92
2023-04-17T17:11:43.492Z,13.30
2023-04-17T17:14:11.466Z,12.85
2023-04-17T17:16:40.843Z,12.21
2023-04-17T17:19:09.191Z,11.73
2023-04-17T17:21:37.120Z,11.62
2023-04-17T17:24:07.194Z,11.88
2023-04-17T17:26:37.044Z,11.55
2023-04-17T17:29:05.262Z,11.82
2023-04-17T17:31:34.599Z,11.83
2023-04-17T17:34:16.689Z,11.86
2023-04-17T17:36:51.445Z,11.88
2023-04-17T17:39:21.779Z,11.87
2023-04-17T17:41:50.060Z,11.82
2023-04-17T17:44:17.985Z,11.70
2023-04-17T17:46:46.128Z,11.40
2023-04-17T17:49:14.100Z,11.20
2023-04-17T17:51:42.520Z,11.08
2023-04-17T17:54:10.695Z,11.08
2023-04-17T17:56:40.202Z,10.91
2023-04-17T17:59:08.189Z,11.08
2023-04-17T18:01:36.194Z,11.25
2023-04-17T18:04:04.404Z,11.36
2023-04-17T18:06:32.493Z,11.53
2023-04-17T18:09:03.130Z,11.53
2023-04-17T18:11:31.050Z,11.52
2023-04-17T18:14:01.808Z,11.47
2023-04-17T18:16:31.638Z,11.49
2023-04-17T18:19:02.053Z,11.50
2023-04-17T18:21:30.164Z,11.52
2023-04-17T18:23:58.221Z,11.47
2023-04-17T18:26:26.140Z,11.40
2023-04-17T18:28:54.085Z,11.45
2023-04-17T18:31:25.258Z,11.39
2023-04-17T18:33:53.222Z,11.44
2023-04-17T18:36:21.482Z,11.38
2023-04-17T18:38:49.424Z,11.39
2023-04-17T18:41:17.794Z,11.39
2023-04-17T18:43:45.834Z,11.42
2023-04-17T18:46:13.860Z,11.59
2023-04-17T18:48:43.507Z,11.66
2023-04-17T18:51:12.615Z,11.68
2023-04-17T18:53:40.674Z,11.71
2023-04-17T18:56:10.818Z,11.66
2023-04-17T18:58:40.387Z,11.51
2023-04-17T19:01:10.478Z,11.70
2023-04-17T19:03:38.783Z,11.60
2023-04-17T19:06:08.148Z,11.53
2023-04-17T19:08:36.853Z,11.59
2023-04-17T19:11:04.849Z,11.63
2023-04-17T19:13:33.026Z,11.61
2023-04-17T19:16:01.017Z,11.73
2023-04-17T19:18:29.257Z,11.70
2023-04-17T19:20:57.187Z,11.60
2023-04-17T19:23:26.721Z,11.55
2023-04-17T19:25:55.022Z,11.55
2023-04-17T19:28:24.501Z,11.53
2023-04-17T19:30:52.420Z,11.55
2023-04-17T19:33:20.577Z,11.43
2023-04-17T19:35:48.540Z,11.41
2023-04-17T19:38:17.433Z,11.42
2023-04-17T19:40:48.543Z,11.43
2023-04-17T19:43:16.817Z,11.35
2023-04-17T19:45:44.756Z,11.29
2023-04-17T19:48:12.803Z,11.38
2023-04-17T19:50:40.757Z,11.45
2023-04-17T19:53:08.603Z,11.46
2023-04-17T19:55:36.463Z,11.47
2023-04-17T19:58:06.110Z,11.42
2023-04-17T20:00:34.084Z,11.45
2023-04-17T20:03:02.115Z,11.45
2023-04-17T20:05:30.564Z,11.50
2023-04-17T20:07:58.562Z,11.30
2023-04-17T20:10:27.449Z,11.32
2023-04-17T20:12:55.521Z,11.41
2023-04-17T20:15:25.030Z,11.35
2023-04-17T20:17:54.322Z,11.33
2023-04-17T20:20:22.653Z,11.43
2023-04-17T20:22:50.880Z,11.43
2023-04-17T20:25:18.793Z,11.28
2023-04-17T20:27:46.720Z,11.29
2023-04-17T20:30:16.659Z,11.31
2023-04-17T20:32:48.024Z,11.25
2023-04-17T20:35:16.502Z,11.27
2023-04-17T20:37:45.831Z,11.26
2023-04-17T20:40:14.636Z,11.37
2023-04-17T20:42:45.888Z,11.45
2023-04-17T20:45:14.048Z,11.51
2023-04-17T20:47:56.113Z,11.42
2023-04-17T20:50:26.322Z,11.29
2023-04-17T20:52:54.212Z,11.46
2023-04-17T20:55:23.221Z,11.47
2023-04-17T20:57:51.204Z,11.42
2023-04-17T21:00:19.412Z,11.44
2023-04-17T21:02:47.491Z,11.45
2023-04-17T21:05:15.486Z,11.50
2023-04-17T21:07:44.704Z,11.44
2023-04-17T21:10:12.634Z,11.36
2023-04-17T21:12:40.590Z,11.45
2023-04-17T21:15:10.264Z,11.38
2023-04-17T21:17:38.653Z,11.31
2023-04-17T21:20:07.536Z,11.22
2023-04-17T21:22:36.813Z,11.24
2023-04-17T21:25:07.585Z,11.16
2023-04-17T21:27:35.489Z,11.13
2023-04-17T21:30:03.957Z,11.08
2023-04-17T21:32:31.815Z,10.87
2023-04-17T21:34:59.708Z,10.79
2023-04-17T21:37:27.628Z,10.72
2023-04-17T21:39:55.727Z,10.72
2023-04-17T21:42:26.109Z,10.63
2023-04-17T21:44:54.058Z,10.65
2023-04-17T21:47:22.095Z,10.62
2023-04-17T21:49:50.214Z,10.70
2023-04-17T21:52:18.711Z,10.51
2023-04-17T21:54:46.601Z,10.82
2023-04-17T21:57:14.461Z,10.61
2023-04-17T21:59:43.689Z,10.71
2023-04-17T22:02:11.633Z,10.69
2023-04-17T22:04:39.867Z,10.65
2023-04-17T22:07:08.676Z,10.62
2023-04-17T22:09:36.548Z,10.69
2023-04-17T22:12:12.032Z,10.78
2023-04-17T22:14:41.082Z,10.78
2023-04-17T22:17:10.434Z,10.76
2023-04-17T22:19:38.338Z,10.79
2023-04-17T22:22:06.191Z,10.73
2023-04-17T22:24:34.107Z,10.68
2023-04-17T22:27:02.289Z,10.76
2023-04-17T22:29:30.226Z,10.76
2023-04-17T22:31:58.122Z,10.66
2023-04-17T22:34:27.338Z,10.62
2023-04-17T22:36:55.208Z,10.59
2023-04-17T22:39:23.099Z,10.61
2023-04-17T22:41:51.458Z,10.67
2023-04-17T22:44:19.308Z,10.66
2023-04-17T22:46:47.260Z,10.67
2023-04-17T22:49:15.463Z,10.74
2023-04-17T22:51:44.678Z,10.75
2023-04-17T22:54:22.133Z,10.78
2023-04-17T22:56:50.899Z,10.70
2023-04-17T22:59:18.758Z,10.44
2023-04-17T23:01:46.662Z,10.55
2023-04-17T23:04:14.827Z,10.60
2023-04-17T23:06:44.342Z,10.60
2023-04-17T23:09:12.280Z,10.67
2023-04-17T23:11:40.149Z,10.66
2023-04-17T23:14:08.260Z,10.56
2023-04-17T23:16:36.301Z,10.70
2023-04-17T23:19:04.750Z,10.69
2023-04-17T23:21:32.645Z,10.66
2023-04-17T23:24:02.001Z,10.74
2023-04-17T23:26:29.898Z,10.79
2023-04-17T23:28:57.769Z,10.84
2023-04-17T23:31:25.814Z,10.89
2023-04-17T23:33:53.768Z,10.95
2023-04-17T23:36:21.605Z,10.95
2023-04-17T23:38:49.469Z,10.96
2023-04-17T23:41:18.835Z,10.92
2023-04-17T23:43:46.937Z,10.83
2023-04-17T23:46:14.890Z,10.67
2023-04-17T23:48:42.797Z,10.81
2023-04-17T23:51:10.668Z,10.87
2023-04-17T23:53:38.552Z,10.90
2023-04-17T23:56:06.883Z,10.92
2023-04-17T23:58:36.126Z,10.92
